sensor_id;sensor_type;location;lat;lon;timestamp;pressure;altitude;pressure_sealevel;temperature;humidity
77603;BME280;66771;52.434;17.056;2023-03-01T00:01:33;102158.80;;;-6.62;77.53
77603;BME280;66771;52.434;17.056;2023-03-01T00:04:00;102158.55;;;-6.66;77.45
77603;BME280;66771;52.434;17.056;2023-03-01T00:06:27;102157.50;;;-6.66;77.46
77603;BME280;66771;52.434;17.056;2023-03-01T00:08:55;102162.24;;;-6.65;77.48
77603;BME280;66771;52.434;17.056;2023-03-01T00:11:44;102160.48;;;-6.65;77.49
77603;BME280;66771;52.434;17.056;2023-03-01T00:14:11;102158.45;;;-6.63;77.51
77603;BME280;66771;52.434;17.056;2023-03-01T00:16:42;102157.54;;;-6.64;77.45
77603;BME280;66771;52.434;17.056;2023-03-01T00:19:13;102156.65;;;-6.66;77.45
77603;BME280;66771;52.434;17.056;2023-03-01T00:21:40;102157.92;;;-6.72;77.40
77603;BME280;66771;52.434;17.056;2023-03-01T00:24:08;102155.26;;;-6.74;77.49
77603;BME280;66771;52.434;17.056;2023-03-01T00:26:35;102148.74;;;-6.76;77.47
77603;BME280;66771;52.434;17.056;2023-03-01T00:29:03;102147.10;;;-6.80;77.54
77603;BME280;66771;52.434;17.056;2023-03-01T00:31:32;102144.75;;;-6.84;77.54
77603;BME280;66771;52.434;17.056;2023-03-01T00:34:02;102145.38;;;-6.89;77.54
77603;BME280;66771;52.434;17.056;2023-03-01T00:36:33;102145.16;;;-6.91;77.52
77603;BME280;66771;52.434;17.056;2023-03-01T00:39:01;102144.61;;;-6.92;77.45
77603;BME280;66771;52.434;17.056;2023-03-01T00:41:29;102140.61;;;-6.91;77.41
77603;BME280;66771;52.434;17.056;2023-03-01T00:43:56;102136.61;;;-6.89;77.49
77603;BME280;66771;52.434;17.056;2023-03-01T00:46:26;102134.73;;;-6.87;77.36
77603;BME280;66771;52.434;17.056;2023-03-01T00:48:53;102130.16;;;-6.88;77.42
77603;BME280;66771;52.434;17.056;2023-03-01T00:51:27;102130.33;;;-6.89;77.50
77603;BME280;66771;52.434;17.056;2023-03-01T00:53:59;102126.09;;;-6.91;77.51
77603;BME280;66771;52.434;17.056;2023-03-01T00:56:27;102124.64;;;-6.94;77.60
77603;BME280;66771;52.434;17.056;2023-03-01T00:58:55;102131.42;;;-6.97;77.57
77603;BME280;66771;52.434;17.056;2023-03-01T01:01:25;102129.05;;;-7.02;77.57
77603;BME280;66771;52.434;17.056;2023-03-01T01:04:00;102126.15;;;-7.06;77.57
77603;BME280;66771;52.434;17.056;2023-03-01T01:06:30;102123.81;;;-7.10;77.66
77603;BME280;66771;52.434;17.056;2023-03-01T01:08:58;102117.50;;;-7.11;77.74
77603;BME280;66771;52.434;17.056;2023-03-01T01:11:27;102115.73;;;-7.12;77.53
77603;BME280;66771;52.434;17.056;2023-03-01T01:13:55;102112.77;;;-7.11;77.58
77603;BME280;66771;52.434;17.056;2023-03-01T01:16:25;102112.92;;;-7.11;77.55
77603;BME280;66771;52.434;17.056;2023-03-01T01:18:53;102115.64;;;-7.08;77.63
77603;BME280;66771;52.434;17.056;2023-03-01T01:21:21;102120.73;;;-7.06;77.70
77603;BME280;66771;52.434;17.056;2023-03-01T01:23:50;102118.96;;;-7.07;77.56
77603;BME280;66771;52.434;17.056;2023-03-01T01:26:20;102114.73;;;-7.09;77.67
77603;BME280;66771;52.434;17.056;2023-03-01T01:28:47;102116.45;;;-7.11;77.59
77603;BME280;66771;52.434;17.056;2023-03-01T01:31:15;102112.69;;;-7.16;77.70
77603;BME280;66771;52.434;17.056;2023-03-01T01:33:42;102111.55;;;-7.20;77.60
77603;BME280;66771;52.434;17.056;2023-03-01T01:36:10;102113.23;;;-7.24;77.65
77603;BME280;66771;52.434;17.056;2023-03-01T01:38:38;102110.02;;;-7.27;77.69
77603;BME280;66771;52.434;17.056;2023-03-01T01:41:05;102107.34;;;-7.29;77.61
77603;BME280;66771;52.434;17.056;2023-03-01T01:43:35;102103.30;;;-7.32;77.62
77603;BME280;66771;52.434;17.056;2023-03-01T01:48:48;102101.80;;;-7.27;77.79
77603;BME280;66771;52.434;17.056;2023-03-01T01:51:19;102098.84;;;-7.26;77.72
77603;BME280;66771;52.434;17.056;2023-03-01T01:53:52;102094.35;;;-7.23;77.80
77603;BME280;66771;52.434;17.056;2023-03-01T01:56:20;102088.42;;;-7.23;77.82
77603;BME280;66771;52.434;17.056;2023-03-01T01:58:48;102093.66;;;-7.23;77.76
77603;BME280;66771;52.434;17.056;2023-03-01T02:01:16;102094.69;;;-7.24;77.81
77603;BME280;66771;52.434;17.056;2023-03-01T02:03:44;102086.33;;;-7.31;77.81
77603;BME280;66771;52.434;17.056;2023-03-01T02:09:19;102079.05;;;-7.38;77.93
77603;BME280;66771;52.434;17.056;2023-03-01T02:33:18;102041.36;;;-7.23;78.01
77603;BME280;66771;52.434;17.056;2023-03-01T02:58:20;102036.64;;;-7.61;77.30
77603;BME280;66771;52.434;17.056;2023-03-01T03:00:53;102034.89;;;-7.61;77.26
77603;BME280;66771;52.434;17.056;2023-03-01T03:03:48;102025.79;;;-7.62;77.28
77603;BME280;66771;52.434;17.056;2023-03-01T03:06:22;102032.36;;;-7.56;77.56
77603;BME280;66771;52.434;17.056;2023-03-01T03:09:07;102031.38;;;-7.52;77.54
77603;BME280;66771;52.434;17.056;2023-03-01T03:12:08;102034.42;;;-7.48;77.61
77603;BME280;66771;52.434;17.056;2023-03-01T03:15:35;102032.96;;;-7.43;77.69
77603;BME280;66771;52.434;17.056;2023-03-01T03:22:52;102029.20;;;-7.39;77.47
77603;BME280;66771;52.434;17.056;2023-03-01T03:26:07;102019.40;;;-7.39;77.25
77603;BME280;66771;52.434;17.056;2023-03-01T03:28:39;102014.83;;;-7.40;77.39
77603;BME280;66771;52.434;17.056;2023-03-01T03:31:25;102020.52;;;-7.36;77.39
77603;BME280;66771;52.434;17.056;2023-03-01T03:34:24;102022.48;;;-7.33;77.45
77603;BME280;66771;52.434;17.056;2023-03-01T03:37:02;102013.15;;;-7.37;77.30
77603;BME280;66771;52.434;17.056;2023-03-01T03:40:01;102030.73;;;-7.31;77.23
77603;BME280;66771;52.434;17.056;2023-03-01T03:53:58;102021.95;;;-7.24;77.37
77603;BME280;66771;52.434;17.056;2023-03-01T04:01:17;102008.14;;;-7.23;77.35
77603;BME280;66771;52.434;17.056;2023-03-01T04:11:21;102013.27;;;-7.09;77.52
77603;BME280;66771;52.434;17.056;2023-03-01T04:14:49;102012.13;;;-7.05;77.56
77603;BME280;66771;52.434;17.056;2023-03-01T04:17:29;102014.80;;;-7.02;77.49
77603;BME280;66771;52.434;17.056;2023-03-01T04:20:03;102016.21;;;-7.01;77.41
77603;BME280;66771;52.434;17.056;2023-03-01T04:22:38;102015.72;;;-7.00;77.40
77603;BME280;66771;52.434;17.056;2023-03-01T04:25:27;102011.30;;;-7.02;77.23
77603;BME280;66771;52.434;17.056;2023-03-01T04:28:02;102017.39;;;-7.04;77.14
77603;BME280;66771;52.434;17.056;2023-03-01T04:38:12;102021.36;;;-7.07;77.09
77603;BME280;66771;52.434;17.056;2023-03-01T04:41:34;102015.58;;;-7.08;77.06
77603;BME280;66771;52.434;17.056;2023-03-01T04:44:07;102012.59;;;-7.08;77.03
77603;BME280;66771;52.434;17.056;2023-03-01T04:46:48;102013.10;;;-7.09;77.00
77603;BME280;66771;52.434;17.056;2023-03-01T04:49:16;102009.43;;;-7.09;76.93
77603;BME280;66771;52.434;17.056;2023-03-01T04:51:57;102013.59;;;-7.11;76.85
77603;BME280;66771;52.434;17.056;2023-03-01T04:55:13;102010.03;;;-7.15;76.83
77603;BME280;66771;52.434;17.056;2023-03-01T04:57:54;102001.55;;;-7.20;76.96
77603;BME280;66771;52.434;17.056;2023-03-01T05:00:23;102007.57;;;-7.16;77.07
77603;BME280;66771;52.434;17.056;2023-03-01T05:03:01;102009.88;;;-7.13;77.20
77603;BME280;66771;52.434;17.056;2023-03-01T05:05:34;102010.11;;;-7.10;77.44
77603;BME280;66771;52.434;17.056;2023-03-01T05:08:06;102007.36;;;-7.07;77.37
77603;BME280;66771;52.434;17.056;2023-03-01T05:10:38;102006.31;;;-7.07;77.17
77603;BME280;66771;52.434;17.056;2023-03-01T05:13:12;102005.77;;;-7.08;77.13
77603;BME280;66771;52.434;17.056;2023-03-01T05:15:59;102004.91;;;-7.08;77.16
77603;BME280;66771;52.434;17.056;2023-03-01T05:19:05;102010.34;;;-7.07;77.13
77603;BME280;66771;52.434;17.056;2023-03-01T05:24:56;102008.73;;;-7.19;76.81
77603;BME280;66771;52.434;17.056;2023-03-01T05:30:45;102013.02;;;-7.14;76.89
77603;BME280;66771;52.434;17.056;2023-03-01T05:34:17;102018.09;;;-7.14;76.88
77603;BME280;66771;52.434;17.056;2023-03-01T05:37:05;102016.70;;;-7.13;76.90
77603;BME280;66771;52.434;17.056;2023-03-01T05:42:36;102012.08;;;-7.19;76.60
77603;BME280;66771;52.434;17.056;2023-03-01T05:45:08;102012.93;;;-7.19;76.80
77603;BME280;66771;52.434;17.056;2023-03-01T05:47:52;102014.38;;;-7.17;76.83
77603;BME280;66771;52.434;17.056;2023-03-01T05:50:26;102012.48;;;-7.15;76.85
77603;BME280;66771;52.434;17.056;2023-03-01T05:53:02;102015.16;;;-7.11;77.08
77603;BME280;66771;52.434;17.056;2023-03-01T05:55:35;102008.86;;;-7.11;77.15
77603;BME280;66771;52.434;17.056;2023-03-01T05:58:14;102007.33;;;-7.09;77.19
77603;BME280;66771;52.434;17.056;2023-03-01T06:01:05;102001.89;;;-7.10;77.37
77603;BME280;66771;52.434;17.056;2023-03-01T06:04:04;101999.86;;;-7.05;77.71
77603;BME280;66771;52.434;17.056;2023-03-01T06:06:37;102000.13;;;-7.01;77.73
77603;BME280;66771;52.434;17.056;2023-03-01T06:09:30;101994.42;;;-6.97;77.97
77603;BME280;66771;52.434;17.056;2023-03-01T06:12:21;101984.30;;;-6.95;78.02
77603;BME280;66771;52.434;17.056;2023-03-01T06:14:49;101991.02;;;-6.91;78.11
77603;BME280;66771;52.434;17.056;2023-03-01T06:17:25;101993.83;;;-6.89;78.15
77603;BME280;66771;52.434;17.056;2023-03-01T06:19:52;101997.55;;;-6.86;78.14
77603;BME280;66771;52.434;17.056;2023-03-01T06:22:32;101994.46;;;-6.82;78.22
77603;BME280;66771;52.434;17.056;2023-03-01T06:24:59;101995.38;;;-6.80;78.14
77603;BME280;66771;52.434;17.056;2023-03-01T06:27:30;101994.53;;;-6.78;78.31
77603;BME280;66771;52.434;17.056;2023-03-01T06:29:57;101992.64;;;-6.76;78.32
77603;BME280;66771;52.434;17.056;2023-03-01T06:32:25;101992.16;;;-6.73;78.28
77603;BME280;66771;52.434;17.056;2023-03-01T06:35:16;101996.99;;;-6.65;78.31
77603;BME280;66771;52.434;17.056;2023-03-01T06:37:47;101998.34;;;-6.57;78.25
77603;BME280;66771;52.434;17.056;2023-03-01T06:40:20;101995.44;;;-6.53;78.04
77603;BME280;66771;52.434;17.056;2023-03-01T06:42:54;101999.24;;;-6.43;78.25
77603;BME280;66771;52.434;17.056;2023-03-01T06:45:37;102000.14;;;-6.29;78.37
77603;BME280;66771;52.434;17.056;2023-03-01T06:48:29;101989.25;;;-6.18;78.50
77603;BME280;66771;52.434;17.056;2023-03-01T06:54:32;102000.85;;;-5.83;78.68
77603;BME280;66771;52.434;17.056;2023-03-01T06:57:25;101993.31;;;-5.68;78.76
77603;BME280;66771;52.434;17.056;2023-03-01T07:00:05;101995.02;;;-5.57;78.68
77603;BME280;66771;52.434;17.056;2023-03-01T07:03:27;101990.23;;;-5.45;78.74
77603;BME280;66771;52.434;17.056;2023-03-01T07:17:32;102004.23;;;-4.91;79.44
77603;BME280;66771;52.434;17.056;2023-03-01T07:49:45;102004.52;;;-2.84;80.12
77603;BME280;66771;52.434;17.056;2023-03-01T07:56:46;102006.22;;;-2.36;80.62
77603;BME280;66771;52.434;17.056;2023-03-01T08:18:42;101983.49;;;-0.46;80.16
77603;BME280;66771;52.434;17.056;2023-03-01T09:21:44;101925.58;;;4.73;59.14
77603;BME280;66771;52.434;17.056;2023-03-01T09:40:50;101928.37;;;3.56;58.81
77603;BME280;66771;52.434;17.056;2023-03-01T09:51:42;101923.43;;;3.41;61.50
77603;BME280;66771;52.434;17.056;2023-03-01T10:29:05;101918.81;;;4.39;60.63
77603;BME280;66771;52.434;17.056;2023-03-01T10:32:03;101917.35;;;4.46;62.17
77603;BME280;66771;52.434;17.056;2023-03-01T10:34:41;101913.95;;;4.46;62.49
77603;BME280;66771;52.434;17.056;2023-03-01T10:37:14;101909.87;;;4.46;62.46
77603;BME280;66771;52.434;17.056;2023-03-01T10:40:07;101903.64;;;4.50;62.44
77603;BME280;66771;52.434;17.056;2023-03-01T10:42:48;101902.27;;;4.76;62.10
77603;BME280;66771;52.434;17.056;2023-03-01T10:49:12;101896.76;;;5.13;61.64
77603;BME280;66771;52.434;17.056;2023-03-01T10:51:45;101894.29;;;5.27;61.22
77603;BME280;66771;52.434;17.056;2023-03-01T10:54:32;101891.27;;;5.42;58.84
77603;BME280;66771;52.434;17.056;2023-03-01T10:57:52;101887.72;;;5.36;58.55
77603;BME280;66771;52.434;17.056;2023-03-01T11:01:01;101878.54;;;5.43;56.84
77603;BME280;66771;52.434;17.056;2023-03-01T11:03:38;101876.46;;;5.52;56.80
77603;BME280;66771;52.434;17.056;2023-03-01T11:06:20;101875.73;;;5.61;58.50
77603;BME280;66771;52.434;17.056;2023-03-01T11:08:49;101874.05;;;5.64;59.89
77603;BME280;66771;52.434;17.056;2023-03-01T11:11:41;101874.53;;;5.65;59.42
77603;BME280;66771;52.434;17.056;2023-03-01T11:14:59;101871.27;;;5.66;57.14
77603;BME280;66771;52.434;17.056;2023-03-01T11:17:50;101870.02;;;5.91;57.00
77603;BME280;66771;52.434;17.056;2023-03-01T11:24:29;101846.43;;;6.88;57.49
77603;BME280;66771;52.434;17.056;2023-03-01T11:27:16;101848.86;;;7.19;58.82
77603;BME280;66771;52.434;17.056;2023-03-01T11:30:41;101843.77;;;7.45;58.16
77603;BME280;66771;52.434;17.056;2023-03-01T11:32:50;101848.13;;;7.27;58.55
77603;BME280;66771;52.434;17.056;2023-03-01T11:35:25;101850.05;;;7.08;58.41
77603;BME280;66771;52.434;17.056;2023-03-01T11:40:40;101848.23;;;7.33;59.23
77603;BME280;66771;52.434;17.056;2023-03-01T11:56:16;101817.39;;;8.44;55.86
77603;BME280;66771;52.434;17.056;2023-03-01T12:05:20;101823.41;;;8.46;56.55
77603;BME280;66771;52.434;17.056;2023-03-01T12:08:00;101823.49;;;8.48;57.10
77603;BME280;66771;52.434;17.056;2023-03-01T12:10:55;101821.31;;;8.77;57.03
77603;BME280;66771;52.434;17.056;2023-03-01T12:16:26;101817.01;;;9.05;53.72
77603;BME280;66771;52.434;17.056;2023-03-01T12:22:17;101801.34;;;9.16;55.22
77603;BME280;66771;52.434;17.056;2023-03-01T12:36:02;101773.15;;;11.39;52.66
77603;BME280;66771;52.434;17.056;2023-03-01T12:44:22;101771.81;;;13.53;50.92
77603;BME280;66771;52.434;17.056;2023-03-01T12:50:03;101772.35;;;12.00;51.01
77603;BME280;66771;52.434;17.056;2023-03-01T12:52:39;101768.15;;;11.24;50.98
77603;BME280;66771;52.434;17.056;2023-03-01T12:55:33;101770.16;;;10.68;51.37
77603;BME280;66771;52.434;17.056;2023-03-01T13:01:00;101776.64;;;9.74;52.22
77603;BME280;66771;52.434;17.056;2023-03-01T13:03:59;101774.97;;;9.22;50.18
77603;BME280;66771;52.434;17.056;2023-03-01T13:06:58;101770.02;;;8.70;52.90
77603;BME280;66771;52.434;17.056;2023-03-01T13:15:36;101756.39;;;7.97;54.03
77603;BME280;66771;52.434;17.056;2023-03-01T13:21:07;101753.56;;;7.78;54.83
77603;BME280;66771;52.434;17.056;2023-03-01T13:24:09;101745.71;;;7.69;55.53
77603;BME280;66771;52.434;17.056;2023-03-01T13:39:53;101728.95;;;7.57;55.12
77603;BME280;66771;52.434;17.056;2023-03-01T13:42:51;101728.52;;;7.40;55.35
77603;BME280;66771;52.434;17.056;2023-03-01T13:45:52;101724.77;;;7.35;55.52
77603;BME280;66771;52.434;17.056;2023-03-01T13:48:30;101726.23;;;7.23;55.35
77603;BME280;66771;52.434;17.056;2023-03-01T13:51:27;101732.41;;;7.24;55.61
77603;BME280;66771;52.434;17.056;2023-03-01T13:54:16;101725.71;;;7.61;55.53
77603;BME280;66771;52.434;17.056;2023-03-01T13:57:25;101721.33;;;7.96;55.23
77603;BME280;66771;52.434;17.056;2023-03-01T14:00:28;101722.35;;;8.26;55.02
77603;BME280;66771;52.434;17.056;2023-03-01T14:03:32;101726.70;;;8.43;54.22
77603;BME280;66771;52.434;17.056;2023-03-01T14:06:16;101728.38;;;8.31;54.38
77603;BME280;66771;52.434;17.056;2023-03-01T14:09:21;101728.52;;;8.13;54.44
77603;BME280;66771;52.434;17.056;2023-03-01T14:18:17;101720.30;;;7.95;55.13
77603;BME280;66771;52.434;17.056;2023-03-01T14:21:22;101714.38;;;7.99;54.73
77603;BME280;66771;52.434;17.056;2023-03-01T14:24:03;101708.20;;;7.89;54.54
77603;BME280;66771;52.434;17.056;2023-03-01T14:26:37;101711.77;;;7.79;55.07
77603;BME280;66771;52.434;17.056;2023-03-01T14:29:04;101712.63;;;7.65;55.12
77603;BME280;66771;52.434;17.056;2023-03-01T14:31:36;101715.95;;;7.55;55.29
77603;BME280;66771;52.434;17.056;2023-03-01T14:34:03;101714.55;;;7.47;55.46
77603;BME280;66771;52.434;17.056;2023-03-01T14:36:33;101713.02;;;7.38;55.42
77603;BME280;66771;52.434;17.056;2023-03-01T14:39:00;101708.39;;;7.26;55.43
77603;BME280;66771;52.434;17.056;2023-03-01T14:41:35;101710.41;;;7.17;55.56
77603;BME280;66771;52.434;17.056;2023-03-01T14:44:15;101713.04;;;7.11;55.32
77603;BME280;66771;52.434;17.056;2023-03-01T14:46:45;101711.57;;;7.03;55.78
77603;BME280;66771;52.434;17.056;2023-03-01T14:49:29;101703.73;;;6.98;56.01
77603;BME280;66771;52.434;17.056;2023-03-01T14:52:14;101703.96;;;6.93;56.08
77603;BME280;66771;52.434;17.056;2023-03-01T14:55:04;101703.67;;;7.04;55.88
77603;BME280;66771;52.434;17.056;2023-03-01T14:57:42;101702.97;;;7.23;55.41
77603;BME280;66771;52.434;17.056;2023-03-01T15:03:37;101697.52;;;6.93;55.80
77603;BME280;66771;52.434;17.056;2023-03-01T15:06:10;101696.23;;;6.82;55.95
77603;BME280;66771;52.434;17.056;2023-03-01T15:08:48;101692.67;;;6.74;56.35
77603;BME280;66771;52.434;17.056;2023-03-01T15:13:55;101693.44;;;6.56;56.84
77603;BME280;66771;52.434;17.056;2023-03-01T15:16:32;101691.38;;;6.47;56.80
77603;BME280;66771;52.434;17.056;2023-03-01T15:19:02;101690.22;;;6.36;57.22
77603;BME280;66771;52.434;17.056;2023-03-01T15:21:43;101688.58;;;6.24;57.42
77603;BME280;66771;52.434;17.056;2023-03-01T15:26:59;101686.66;;;5.98;57.62
77603;BME280;66771;52.434;17.056;2023-03-01T15:33:49;101690.52;;;5.81;57.96
77603;BME280;66771;52.434;17.056;2023-03-01T15:35:59;101690.09;;;5.69;58.28
77603;BME280;66771;52.434;17.056;2023-03-01T15:38:51;101688.45;;;5.52;58.42
77603;BME280;66771;52.434;17.056;2023-03-01T15:42:43;101696.07;;;5.36;58.53
77603;BME280;66771;52.434;17.056;2023-03-01T15:44:45;101696.93;;;5.14;59.17
77603;BME280;66771;52.434;17.056;2023-03-01T15:47:29;101696.66;;;4.92;59.22
77603;BME280;66771;52.434;17.056;2023-03-01T15:50:16;101693.20;;;4.74;59.52
77603;BME280;66771;52.434;17.056;2023-03-01T15:52:54;101695.09;;;4.57;59.88
77603;BME280;66771;52.434;17.056;2023-03-01T15:55:35;101696.12;;;4.37;60.16
77603;BME280;66771;52.434;17.056;2023-03-01T15:58:34;101700.13;;;4.19;60.33
77603;BME280;66771;52.434;17.056;2023-03-01T16:01:18;101698.00;;;3.98;60.74
77603;BME280;66771;52.434;17.056;2023-03-01T16:04:01;101688.08;;;3.74;61.06
77603;BME280;66771;52.434;17.056;2023-03-01T16:06:54;101691.23;;;3.59;61.44
77603;BME280;66771;52.434;17.056;2023-03-01T16:09:29;101692.06;;;3.38;61.63
77603;BME280;66771;52.434;17.056;2023-03-01T16:12:28;101691.63;;;3.17;61.88
77603;BME280;66771;52.434;17.056;2023-03-01T16:15:15;101694.27;;;3.00;62.23
77603;BME280;66771;52.434;17.056;2023-03-01T16:17:56;101690.90;;;2.82;62.49
77603;BME280;66771;52.434;17.056;2023-03-01T16:20:27;101683.82;;;2.61;62.54
77603;BME280;66771;52.434;17.056;2023-03-01T16:23:05;101687.51;;;2.49;62.96
77603;BME280;66771;52.434;17.056;2023-03-01T16:25:44;101684.34;;;2.36;63.18
77603;BME280;66771;52.434;17.056;2023-03-01T16:28:20;101683.79;;;2.23;63.39
77603;BME280;66771;52.434;17.056;2023-03-01T16:30:47;101686.28;;;2.08;63.61
77603;BME280;66771;52.434;17.056;2023-03-01T16:33:41;101685.16;;;1.90;63.80
77603;BME280;66771;52.434;17.056;2023-03-01T16:36:40;101684.38;;;1.70;64.35
77603;BME280;66771;52.434;17.056;2023-03-01T16:39:14;101679.60;;;1.55;64.64
77603;BME280;66771;52.434;17.056;2023-03-01T16:41:46;101668.01;;;1.35;64.76
77603;BME280;66771;52.434;17.056;2023-03-01T16:44:41;101680.14;;;1.24;65.02
77603;BME280;66771;52.434;17.056;2023-03-01T16:47:21;101680.77;;;1.03;65.39
77603;BME280;66771;52.434;17.056;2023-03-01T16:49:52;101683.05;;;0.86;65.42
77603;BME280;66771;52.434;17.056;2023-03-01T16:52:20;101683.92;;;0.70;65.74
77603;BME280;66771;52.434;17.056;2023-03-01T16:54:48;101678.37;;;0.55;65.85
77603;BME280;66771;52.434;17.056;2023-03-01T16:57:15;101677.59;;;0.40;66.13
77603;BME280;66771;52.434;17.056;2023-03-01T16:59:43;101675.35;;;0.27;66.36
77603;BME280;66771;52.434;17.056;2023-03-01T17:02:13;101675.36;;;0.17;66.53
77603;BME280;66771;52.434;17.056;2023-03-01T17:05:12;101679.23;;;0.08;66.89
77603;BME280;66771;52.434;17.056;2023-03-01T17:07:39;101683.23;;;0.01;67.09
77603;BME280;66771;52.434;17.056;2023-03-01T17:10:14;101680.92;;;-0.09;67.20
77603;BME280;66771;52.434;17.056;2023-03-01T17:12:50;101678.61;;;-0.19;67.57
77603;BME280;66771;52.434;17.056;2023-03-01T17:15:17;101684.05;;;-0.27;67.56
77603;BME280;66771;52.434;17.056;2023-03-01T17:17:52;101682.95;;;-0.36;67.83
77603;BME280;66771;52.434;17.056;2023-03-01T17:20:25;101684.70;;;-0.46;67.99
77603;BME280;66771;52.434;17.056;2023-03-01T17:23:04;101682.77;;;-0.58;68.19
77603;BME280;66771;52.434;17.056;2023-03-01T17:25:31;101672.41;;;-0.75;68.45
77603;BME280;66771;52.434;17.056;2023-03-01T17:28:05;101686.08;;;-0.80;68.48
77603;BME280;66771;52.434;17.056;2023-03-01T17:30:53;101681.14;;;-0.94;68.84
77603;BME280;66771;52.434;17.056;2023-03-01T17:33:23;101687.79;;;-1.03;69.14
77603;BME280;66771;52.434;17.056;2023-03-01T17:36:07;101686.30;;;-1.11;69.10
77603;BME280;66771;52.434;17.056;2023-03-01T17:38:34;101682.15;;;-1.18;69.47
77603;BME280;66771;52.434;17.056;2023-03-01T17:41:03;101683.95;;;-1.22;69.59
77603;BME280;66771;52.434;17.056;2023-03-01T17:43:31;101678.59;;;-1.30;69.58
77603;BME280;66771;52.434;17.056;2023-03-01T17:46:27;101685.28;;;-1.29;69.79
77603;BME280;66771;52.434;17.056;2023-03-01T17:48:54;101686.77;;;-1.35;70.07
77603;BME280;66771;52.434;17.056;2023-03-01T17:51:35;101683.33;;;-1.43;70.17
77603;BME280;66771;52.434;17.056;2023-03-01T17:54:16;101684.10;;;-1.49;70.48
77603;BME280;66771;52.434;17.056;2023-03-01T17:57:07;101685.02;;;-1.54;70.46
77603;BME280;66771;52.434;17.056;2023-03-01T17:59:47;101688.46;;;-1.60;70.72
77603;BME280;66771;52.434;17.056;2023-03-01T18:02:20;101686.27;;;-1.69;70.70
77603;BME280;66771;52.434;17.056;2023-03-01T18:04:47;101692.86;;;-1.76;70.82
77603;BME280;66771;52.434;17.056;2023-03-01T18:07:18;101691.67;;;-1.83;71.15
77603;BME280;66771;52.434;17.056;2023-03-01T18:09:45;101687.63;;;-1.84;71.22
77603;BME280;66771;52.434;17.056;2023-03-01T18:12:12;101685.52;;;-1.86;71.18
77603;BME280;66771;52.434;17.056;2023-03-01T18:14:42;101685.19;;;-1.86;71.40
77603;BME280;66771;52.434;17.056;2023-03-01T18:17:12;101685.91;;;-1.89;71.56
77603;BME280;66771;52.434;17.056;2023-03-01T18:20:00;101677.02;;;-2.00;71.50
77603;BME280;66771;52.434;17.056;2023-03-01T18:22:41;101690.09;;;-2.01;71.91
77603;BME280;66771;52.434;17.056;2023-03-01T18:25:31;101691.52;;;-2.05;72.21
77603;BME280;66771;52.434;17.056;2023-03-01T18:28:01;101689.44;;;-2.08;72.12
77603;BME280;66771;52.434;17.056;2023-03-01T18:30:35;101689.47;;;-2.12;72.28
77603;BME280;66771;52.434;17.056;2023-03-01T18:33:05;101681.91;;;-2.14;72.32
77603;BME280;66771;52.434;17.056;2023-03-01T18:35:35;101677.89;;;-2.19;72.56
77603;BME280;66771;52.434;17.056;2023-03-01T18:38:02;101674.71;;;-2.20;72.64
77603;BME280;66771;52.434;17.056;2023-03-01T18:40:29;101675.79;;;-2.20;72.65
77603;BME280;66771;52.434;17.056;2023-03-01T18:42:57;101684.44;;;-2.22;72.93
77603;BME280;66771;52.434;17.056;2023-03-01T18:45:24;101685.70;;;-2.28;72.92
77603;BME280;66771;52.434;17.056;2023-03-01T18:48:02;101690.17;;;-2.34;72.94
77603;BME280;66771;52.434;17.056;2023-03-01T18:50:49;101693.73;;;-2.40;73.15
77603;BME280;66771;52.434;17.056;2023-03-01T18:53:18;101698.17;;;-2.45;73.25
77603;BME280;66771;52.434;17.056;2023-03-01T18:55:49;101701.75;;;-2.51;73.28
77603;BME280;66771;52.434;17.056;2023-03-01T18:58:18;101698.43;;;-2.57;73.37
77603;BME280;66771;52.434;17.056;2023-03-01T19:00:47;101700.92;;;-2.60;73.69
77603;BME280;66771;52.434;17.056;2023-03-01T19:03:19;101699.53;;;-2.64;73.86
77603;BME280;66771;52.434;17.056;2023-03-01T19:05:53;101703.06;;;-2.66;73.96
77603;BME280;66771;52.434;17.056;2023-03-01T19:08:32;101700.61;;;-2.68;74.06
77603;BME280;66771;52.434;17.056;2023-03-01T19:11:06;101699.73;;;-2.67;74.28
77603;BME280;66771;52.434;17.056;2023-03-01T19:13:45;101694.79;;;-2.68;74.34
77603;BME280;66771;52.434;17.056;2023-03-01T19:16:33;101707.09;;;-2.61;74.40
77603;BME280;66771;52.434;17.056;2023-03-01T19:19:04;101709.91;;;-2.62;74.39
77603;BME280;66771;52.434;17.056;2023-03-01T19:21:34;101711.85;;;-2.62;74.49
77603;BME280;66771;52.434;17.056;2023-03-01T19:24:01;101717.50;;;-2.65;74.47
77603;BME280;66771;52.434;17.056;2023-03-01T19:26:32;101712.27;;;-2.75;74.43
77603;BME280;66771;52.434;17.056;2023-03-01T19:28:59;101717.39;;;-2.76;74.65
77603;BME280;66771;52.434;17.056;2023-03-01T19:31:37;101718.31;;;-2.84;74.61
77603;BME280;66771;52.434;17.056;2023-03-01T19:34:12;101722.55;;;-2.86;74.79
77603;BME280;66771;52.434;17.056;2023-03-01T19:36:47;101725.88;;;-2.85;74.91
77603;BME280;66771;52.434;17.056;2023-03-01T19:39:23;101730.27;;;-2.84;74.94
77603;BME280;66771;52.434;17.056;2023-03-01T19:41:53;101731.68;;;-2.81;74.99
77603;BME280;66771;52.434;17.056;2023-03-01T19:44:22;101726.92;;;-2.78;75.22
77603;BME280;66771;52.434;17.056;2023-03-01T19:47:12;101727.09;;;-2.77;75.28
77603;BME280;66771;52.434;17.056;2023-03-01T19:50:10;101724.27;;;-2.78;75.51
77603;BME280;66771;52.434;17.056;2023-03-01T19:52:42;101721.64;;;-2.79;75.52
77603;BME280;66771;52.434;17.056;2023-03-01T19:55:12;101722.89;;;-2.82;75.64
77603;BME280;66771;52.434;17.056;2023-03-01T19:57:42;101727.12;;;-2.85;75.53
77603;BME280;66771;52.434;17.056;2023-03-01T20:00:19;101723.95;;;-2.88;75.66
77603;BME280;66771;52.434;17.056;2023-03-01T20:02:48;101721.50;;;-2.88;75.65
77603;BME280;66771;52.434;17.056;2023-03-01T20:05:39;101715.69;;;-2.87;75.75